• Join FlightAware (Why Join?)
  • Login
  • US Flag 
11:45AM EDT


 

Airport Tracker/Info


-or-


 

Live Flight TrackerFlight Track Log ✈ ASQ5244 ✈ 21-Jul-2013 ✈ KATL - KMGM

Flight Track Log - Related Links

Times and Time Zones

All times are in EDT time to prevent confusion due to time zone crossing. See the ASQ5244 flight status page for this flight to view local times or setup timezone preferences in your user account.

Time Position Orientation Groundspeed Altitude Reporting Facility
EDT Latitude Longitude Course Direction KTS MPH feet Rate Location/Type
11:09AM 33.6333 -84.4833 270° West 181 208 2,500  Level Atlanta TRACON
11:10AM 33.6333 -84.5667 270° West 260 299 4,900 2,580 Climbing Atlanta TRACON
11:11AM 33.6333 -84.6667 270° West 276 318 8,000 2,520 Climbing Atlanta TRACON
11:12AM 33.6189 -84.7772 261° West 281 323 11,000 1,680 Climbing Atlanta Center
11:13AM 33.5869 -84.8767 249° West 301 346 12,000 1,200 Climbing Atlanta Center
11:14AM 33.5528 -84.9861 249° West 343 395 13,500 1,500 Climbing Atlanta Center
11:15AM 33.5164 -85.1003 249° West 362 417 15,000 1,500 Climbing Atlanta Center
11:16AM 33.4444 -85.2014 230° Southwest 368 423 16,600 1,380 Climbing Atlanta Center
11:17AM 33.3642 -85.2825 220° Southwest 368 423 17,800 660 Climbing Atlanta Center
11:18AM 33.2883 -85.3683 223° Southwest 378 435 18,000 60 Climbing Atlanta Center
11:19AM 33.2017 -85.4564 220° Southwest 394 453 18,000  Level Atlanta Center
11:20AM 33.1150 -85.5467 221° Southwest 406 467 18,000  Level Atlanta Center
11:21AM 33.0242 -85.6344 219° Southwest 413 475 18,000 -120 Level Atlanta Center
11:22AM 32.9372 -85.7294 223° Southwest 418 481 17,800 -1,020 Descending Atlanta Center
11:23AM 32.8525 -85.8217 222° Southwest 418 481 16,000 -2,040 Descending Atlanta Center
11:24AM 32.7700 -85.9064 221° Southwest 418 481 13,800 -2,220 Descending Atlanta Center
11:25AM 32.6892 -85.9911 221° Southwest 401 461 11,600 -1,800 Descending Atlanta Center
11:26AM 32.6111 -86.0536 214° Southwest 377 434 10,200 -1,500 Descending Atlanta Center
11:27AM 32.5394 -86.0914 204° Southwest 311 358 8,600 -1,860 Descending Atlanta Center
11:28AM 32.4644 -86.0822 174° South 283 326 6,500 -1,320 Descending Atlanta Center
11:29AM 32.4014 -86.1078 199° South 265 305 6,000 -900 Descending Atlanta Center
11:30AM 32.3625 -86.1806 238° Southwest 238 274 4,700 -1,800 Descending Atlanta Center
11:31AM 32.3014 -86.2208 209° Southwest 249 287 2,500 -2,220 Descending Atlanta Center
11:33AM 32.3000 -86.3833 270° West  Level FlightAware Approximate
11:40AM 32.3006 -86.3940 270° West  Level Estimated
11:41AM 32.3006 -86.3940 270° West  Level Estimated
11:42AM 32.3006 -86.3940 270° West  Level Estimated